sensor_id;sensor_type;location;lat;lon;timestamp;pressure;altitude;pressure_sealevel;temperature;humidity
69630;BME280;56857;52.212;5.496;2024-01-15T00:01:35;100401.41;;;2.14;100.00
69630;BME280;56857;52.212;5.496;2024-01-15T00:04:00;100404.00;;;2.14;100.00
69630;BME280;56857;52.212;5.496;2024-01-15T00:06:25;100399.91;;;2.12;100.00
69630;BME280;56857;52.212;5.496;2024-01-15T00:08:51;100399.28;;;2.08;100.00
69630;BME280;56857;52.212;5.496;2024-01-15T00:11:16;100397.78;;;2.05;100.00
69630;BME280;56857;52.212;5.496;2024-01-15T00:13:41;100389.22;;;2.03;100.00
69630;BME280;56857;52.212;5.496;2024-01-15T00:16:07;100389.47;;;2.00;100.00
69630;BME280;56857;52.212;5.496;2024-01-15T00:18:32;100385.31;;;1.98;100.00
69630;BME280;56857;52.212;5.496;2024-01-15T00:20:57;100380.34;;;1.95;100.00
69630;BME280;56857;52.212;5.496;2024-01-15T00:23:23;100383.09;;;1.93;100.00
69630;BME280;56857;52.212;5.496;2024-01-15T00:25:48;100378.94;;;1.91;100.00
69630;BME280;56857;52.212;5.496;2024-01-15T00:28:13;100378.94;;;1.91;100.00
69630;BME280;56857;52.212;5.496;2024-01-15T00:30:38;100379.03;;;1.89;100.00
69630;BME280;56857;52.212;5.496;2024-01-15T00:33:04;100374.78;;;1.88;100.00
69630;BME280;56857;52.212;5.496;2024-01-15T00:35:29;100373.97;;;1.88;100.00
69630;BME280;56857;52.212;5.496;2024-01-15T00:37:54;100367.19;;;1.85;100.00
69630;BME280;56857;52.212;5.496;2024-01-15T00:40:20;100367.31;;;1.83;100.00
69630;BME280;56857;52.212;5.496;2024-01-15T00:42:45;100360.41;;;1.82;100.00
69630;BME280;56857;52.212;5.496;2024-01-15T00:45:10;100359.75;;;1.80;100.00
69630;BME280;56857;52.212;5.496;2024-01-15T00:47:36;100354.63;;;1.79;100.00
69630;BME280;56857;52.212;5.496;2024-01-15T00:50:01;100367.81;;;1.77;100.00
69630;BME280;56857;52.212;5.496;2024-01-15T00:52:26;100356.56;;;1.77;100.00
69630;BME280;56857;52.212;5.496;2024-01-15T00:54:52;100354.03;;;1.75;100.00
69630;BME280;56857;52.212;5.496;2024-01-15T00:57:17;100355.84;;;1.75;100.00
69630;BME280;56857;52.212;5.496;2024-01-15T00:59:42;100356.91;;;1.72;100.00
69630;BME280;56857;52.212;5.496;2024-01-15T01:02:07;100351.09;;;1.69;100.00
69630;BME280;56857;52.212;5.496;2024-01-15T01:04:33;100343.41;;;1.67;100.00
69630;BME280;56857;52.212;5.496;2024-01-15T01:06:58;100336.63;;;1.65;100.00
69630;BME280;56857;52.212;5.496;2024-01-15T01:09:23;100335.81;;;1.64;100.00
69630;BME280;56857;52.212;5.496;2024-01-15T01:11:49;100340.19;;;1.63;100.00
69630;BME280;56857;52.212;5.496;2024-01-15T01:14:14;100343.91;;;1.61;100.00
69630;BME280;56857;52.212;5.496;2024-01-15T01:16:39;100341.38;;;1.59;100.00
69630;BME280;56857;52.212;5.496;2024-01-15T01:19:05;100340.56;;;1.59;100.00
69630;BME280;56857;52.212;5.496;2024-01-15T01:21:31;100343.19;;;1.59;100.00
69630;BME280;56857;52.212;5.496;2024-01-15T01:23:56;100344.16;;;1.58;100.00
69630;BME280;56857;52.212;5.496;2024-01-15T01:26:21;100331.78;;;1.60;100.00
69630;BME280;56857;52.212;5.496;2024-01-15T01:28:46;100338.78;;;1.59;100.00
69630;BME280;56857;52.212;5.496;2024-01-15T01:31:12;100342.47;;;1.57;100.00
69630;BME280;56857;52.212;5.496;2024-01-15T01:33:38;100341.53;;;1.58;100.00
69630;BME280;56857;52.212;5.496;2024-01-15T01:36:07;100338.06;;;1.57;100.00
69630;BME280;56857;52.212;5.496;2024-01-15T01:38:32;100333.69;;;1.58;100.00
69630;BME280;56857;52.212;5.496;2024-01-15T01:40:57;100332.97;;;1.56;100.00
69630;BME280;56857;52.212;5.496;2024-01-15T01:43:23;100321.69;;;1.55;100.00
69630;BME280;56857;52.212;5.496;2024-01-15T01:45:48;100332.16;;;1.55;100.00
69630;BME280;56857;52.212;5.496;2024-01-15T01:48:14;100333.22;;;1.53;100.00
69630;BME280;56857;52.212;5.496;2024-01-15T01:50:40;100335.94;;;1.51;100.00
69630;BME280;56857;52.212;5.496;2024-01-15T01:53:05;100336.22;;;1.48;100.00
69630;BME280;56857;52.212;5.496;2024-01-15T01:55:31;100335.38;;;1.48;100.00
69630;BME280;56857;52.212;5.496;2024-01-15T01:57:56;100331.09;;;1.47;100.00
69630;BME280;56857;52.212;5.496;2024-01-15T02:00:22;100326.69;;;1.47;100.00
69630;BME280;56857;52.212;5.496;2024-01-15T02:02:47;100334.53;;;1.47;100.00
69630;BME280;56857;52.212;5.496;2024-01-15T02:05:14;100345.00;;;1.47;100.00
69630;BME280;56857;52.212;5.496;2024-01-15T02:07:43;100339.50;;;1.50;100.00
69630;BME280;56857;52.212;5.496;2024-01-15T02:10:09;100349.72;;;1.53;100.00
69630;BME280;56857;52.212;5.496;2024-01-15T02:12:35;100338.56;;;1.51;100.00
69630;BME280;56857;52.212;5.496;2024-01-15T02:15:01;100331.00;;;1.48;100.00
69630;BME280;56857;52.212;5.496;2024-01-15T02:17:26;100335.25;;;1.49;100.00
69630;BME280;56857;52.212;5.496;2024-01-15T02:19:51;100335.13;;;1.51;100.00
69630;BME280;56857;52.212;5.496;2024-01-15T02:22:17;100333.22;;;1.53;100.00
69630;BME280;56857;52.212;5.496;2024-01-15T02:24:42;100334.88;;;1.54;100.00
69630;BME280;56857;52.212;5.496;2024-01-15T02:27:07;100332.25;;;1.54;100.00
69630;BME280;56857;52.212;5.496;2024-01-15T02:29:33;100318.13;;;1.56;100.00
69630;BME280;56857;52.212;5.496;2024-01-15T02:31:58;100322.28;;;1.59;100.00
69630;BME280;56857;52.212;5.496;2024-01-15T02:34:23;100322.28;;;1.59;100.00
69630;BME280;56857;52.212;5.496;2024-01-15T02:36:48;100316.09;;;1.60;100.00
69630;BME280;56857;52.212;5.496;2024-01-15T02:39:14;100323.00;;;1.61;100.00
69630;BME280;56857;52.212;5.496;2024-01-15T02:41:39;100324.75;;;1.60;100.00
69630;BME280;56857;52.212;5.496;2024-01-15T02:44:04;100315.97;;;1.61;100.00
69630;BME280;56857;52.212;5.496;2024-01-15T02:46:30;100323.81;;;1.61;100.00
69630;BME280;56857;52.212;5.496;2024-01-15T02:48:55;100320.38;;;1.61;100.00
69630;BME280;56857;52.212;5.496;2024-01-15T02:51:20;100325.47;;;1.62;100.00
69630;BME280;56857;52.212;5.496;2024-01-15T02:53:46;100321.06;;;1.63;100.00
69630;BME280;56857;52.212;5.496;2024-01-15T02:56:11;100325.47;;;1.62;100.00
69630;BME280;56857;52.212;5.496;2024-01-15T02:58:36;100318.59;;;1.61;100.00
69630;BME280;56857;52.212;5.496;2024-01-15T03:01:01;100314.19;;;1.62;100.00
69630;BME280;56857;52.212;5.496;2024-01-15T03:03:27;100325.59;;;1.61;100.00
69630;BME280;56857;52.212;5.496;2024-01-15T03:05:52;100322.28;;;1.59;100.00
69630;BME280;56857;52.212;5.496;2024-01-15T03:08:18;100328.22;;;1.61;100.00
69630;BME280;56857;52.212;5.496;2024-01-15T03:10:43;100331.78;;;1.60;100.00
69630;BME280;56857;52.212;5.496;2024-01-15T03:13:08;100347.34;;;1.61;100.00
69630;BME280;56857;52.212;5.496;2024-01-15T03:15:33;100345.66;;;1.60;100.00
69630;BME280;56857;52.212;5.496;2024-01-15T03:17:58;100344.72;;;1.61;100.00
69630;BME280;56857;52.212;5.496;2024-01-15T03:20:24;100350.06;;;1.60;100.00
69630;BME280;56857;52.212;5.496;2024-01-15T03:22:49;100349.13;;;1.61;100.00
69630;BME280;56857;52.212;5.496;2024-01-15T03:25:14;100344.97;;;1.58;100.00
69630;BME280;56857;52.212;5.496;2024-01-15T03:27:40;100350.06;;;1.60;100.00
69630;BME280;56857;52.212;5.496;2024-01-15T03:30:05;100351.72;;;1.61;100.00
69630;BME280;56857;52.212;5.496;2024-01-15T03:32:31;100345.53;;;1.62;100.00
69630;BME280;56857;52.212;5.496;2024-01-15T03:34:56;100349.81;;;1.63;100.00
69630;BME280;56857;52.212;5.496;2024-01-15T03:37:21;100351.59;;;1.62;100.00
69630;BME280;56857;52.212;5.496;2024-01-15T03:39:46;100347.34;;;1.61;100.00
69630;BME280;56857;52.212;5.496;2024-01-15T03:42:12;100333.44;;;1.61;100.00
69630;BME280;56857;52.212;5.496;2024-01-15T03:44:37;100329.03;;;1.61;100.00
69630;BME280;56857;52.212;5.496;2024-01-15T03:47:04;100308.16;;;1.61;100.00
69630;BME280;56857;52.212;5.496;2024-01-15T03:49:29;100282.59;;;1.65;100.00
69630;BME280;56857;52.212;5.496;2024-01-15T03:51:54;100283.16;;;1.69;100.00
69630;BME280;56857;52.212;5.496;2024-01-15T03:54:20;100282.91;;;1.72;100.00
69630;BME280;56857;52.212;5.496;2024-01-15T03:56:45;100277.56;;;1.73;100.00
69630;BME280;56857;52.212;5.496;2024-01-15T03:59:10;100284.47;;;1.74;100.00
69630;BME280;56857;52.212;5.496;2024-01-15T04:01:36;100279.22;;;1.74;100.00
69630;BME280;56857;52.212;5.496;2024-01-15T04:04:01;100280.06;;;1.75;100.00
69630;BME280;56857;52.212;5.496;2024-01-15T04:06:26;100280.16;;;1.73;100.00
69630;BME280;56857;52.212;5.496;2024-01-15T04:08:51;100287.31;;;1.71;100.00
69630;BME280;56857;52.212;5.496;2024-01-15T04:11:17;100272.84;;;1.67;100.00
69630;BME280;56857;52.212;5.496;2024-01-15T04:13:42;100278.91;;;1.68;100.00
69630;BME280;56857;52.212;5.496;2024-01-15T04:16:07;100281.53;;;1.68;100.00
69630;BME280;56857;52.212;5.496;2024-01-15T04:18:33;100272.25;;;1.63;100.00
69630;BME280;56857;52.212;5.496;2024-01-15T04:20:58;100269.78;;;1.62;100.00
69630;BME280;56857;52.212;5.496;2024-01-15T04:23:23;100267.41;;;1.59;100.00
69630;BME280;56857;52.212;5.496;2024-01-15T04:25:49;100269.06;;;1.60;100.00
69630;BME280;56857;52.212;5.496;2024-01-15T04:28:14;100262.44;;;1.56;100.00
69630;BME280;56857;52.212;5.496;2024-01-15T04:30:39;100266.03;;;1.55;100.00
69630;BME280;56857;52.212;5.496;2024-01-15T04:33:04;100266.03;;;1.55;100.00
69630;BME280;56857;52.212;5.496;2024-01-15T04:35:30;100262.69;;;1.53;100.00
69630;BME280;56857;52.212;5.496;2024-01-15T04:37:56;100259.25;;;1.52;100.00
69630;BME280;56857;52.212;5.496;2024-01-15T04:40:21;100252.34;;;1.51;100.00
69630;BME280;56857;52.212;5.496;2024-01-15T04:42:47;100257.72;;;1.50;100.00
69630;BME280;56857;52.212;5.496;2024-01-15T04:45:12;100261.16;;;1.50;100.00
69630;BME280;56857;52.212;5.496;2024-01-15T04:47:38;100250.03;;;1.48;100.00
69630;BME280;56857;52.212;5.496;2024-01-15T04:50:04;100245.88;;;1.46;100.00
69630;BME280;56857;52.212;5.496;2024-01-15T04:52:29;100234.59;;;1.45;100.00
69630;BME280;56857;52.212;5.496;2024-01-15T04:54:55;100235.69;;;1.43;100.00
69630;BME280;56857;52.212;5.496;2024-01-15T04:57:20;100235.53;;;1.44;100.00
69630;BME280;56857;52.212;5.496;2024-01-15T04:59:45;100240.66;;;1.46;100.00
69630;BME280;56857;52.212;5.496;2024-01-15T05:02:11;100240.41;;;1.49;100.00
69630;BME280;56857;52.212;5.496;2024-01-15T05:04:36;100237.53;;;1.52;100.00
69630;BME280;56857;52.212;5.496;2024-01-15T05:07:01;100241.66;;;1.54;100.00
69630;BME280;56857;52.212;5.496;2024-01-15T05:09:27;100240.59;;;1.57;100.00
69630;BME280;56857;52.212;5.496;2024-01-15T05:11:52;100235.25;;;1.58;100.00
69630;BME280;56857;52.212;5.496;2024-01-15T05:14:17;100218.75;;;1.58;100.00
69630;BME280;56857;52.212;5.496;2024-01-15T05:16:49;100220.66;;;1.56;100.00
69630;BME280;56857;52.212;5.496;2024-01-15T05:19:15;100227.41;;;1.58;100.00
69630;BME280;56857;52.212;5.496;2024-01-15T05:21:40;100227.41;;;1.58;100.00
69630;BME280;56857;52.212;5.496;2024-01-15T05:24:07;100229.06;;;1.59;100.00
69630;BME280;56857;52.212;5.496;2024-01-15T05:26:32;100238.53;;;1.60;100.00
69630;BME280;56857;52.212;5.496;2024-01-15T05:28:58;100248.16;;;1.60;100.00
69630;BME280;56857;52.212;5.496;2024-01-15T05:31:23;100248.06;;;1.61;100.00
69630;BME280;56857;52.212;5.496;2024-01-15T05:33:49;100243.50;;;1.63;100.00
69630;BME280;56857;52.212;5.496;2024-01-15T05:36:14;100246.97;;;1.64;100.00
69630;BME280;56857;52.212;5.496;2024-01-15T05:38:39;100248.75;;;1.63;100.00
69630;BME280;56857;52.212;5.496;2024-01-15T05:41:05;100245.31;;;1.63;100.00
69630;BME280;56857;52.212;5.496;2024-01-15T05:43:30;100247.91;;;1.63;100.00
69630;BME280;56857;52.212;5.496;2024-01-15T05:45:56;100255.75;;;1.63;100.00
69630;BME280;56857;52.212;5.496;2024-01-15T05:48:21;100265.28;;;1.64;100.00
69630;BME280;56857;52.212;5.496;2024-01-15T05:50:46;100268.81;;;1.63;100.00
69630;BME280;56857;52.212;5.496;2024-01-15T05:53:12;100260.97;;;1.63;100.00
69630;BME280;56857;52.212;5.496;2024-01-15T05:55:37;100264.66;;;1.60;100.00
69630;BME280;56857;52.212;5.496;2024-01-15T05:58:02;100263.72;;;1.61;100.00
69630;BME280;56857;52.212;5.496;2024-01-15T06:00:27;100266.47;;;1.60;100.00
69630;BME280;56857;52.212;5.496;2024-01-15T06:02:53;100268.25;;;1.59;100.00
69630;BME280;56857;52.212;5.496;2024-01-15T06:05:18;100264.09;;;1.57;100.00
69630;BME280;56857;52.212;5.496;2024-01-15T06:07:43;100260.81;;;1.55;100.00
69630;BME280;56857;52.212;5.496;2024-01-15T06:10:09;100259.25;;;1.52;100.00
69630;BME280;56857;52.212;5.496;2024-01-15T06:12:34;100255.09;;;1.50;100.00
69630;BME280;56857;52.212;5.496;2024-01-15T06:14:59;100253.47;;;1.49;100.00
69630;BME280;56857;52.212;5.496;2024-01-15T06:17:25;100250.03;;;1.48;100.00
69630;BME280;56857;52.212;5.496;2024-01-15T06:19:50;100250.84;;;1.49;100.00
69630;BME280;56857;52.212;5.496;2024-01-15T06:22:15;100245.72;;;1.47;100.00
69630;BME280;56857;52.212;5.496;2024-01-15T06:24:41;100236.25;;;1.46;100.00
69630;BME280;56857;52.212;5.496;2024-01-15T06:27:06;100240.75;;;1.44;100.00
69630;BME280;56857;52.212;5.496;2024-01-15T06:29:32;100242.56;;;1.44;100.00
69630;BME280;56857;52.212;5.496;2024-01-15T06:31:57;100241.72;;;1.43;100.00
69630;BME280;56857;52.212;5.496;2024-01-15T06:34:22;100240.06;;;1.42;100.00
69630;BME280;56857;52.212;5.496;2024-01-15T06:36:48;100233.88;;;1.43;100.00
69630;BME280;56857;52.212;5.496;2024-01-15T06:39:13;100224.41;;;1.42;100.00
69630;BME280;56857;52.212;5.496;2024-01-15T06:41:38;100227.03;;;1.42;100.00
69630;BME280;56857;52.212;5.496;2024-01-15T06:44:04;100222.72;;;1.41;100.00
69630;BME280;56857;52.212;5.496;2024-01-15T06:46:29;100217.75;;;1.38;100.00
69630;BME280;56857;52.212;5.496;2024-01-15T06:48:54;100218.72;;;1.37;100.00
69630;BME280;56857;52.212;5.496;2024-01-15T06:51:19;100221.44;;;1.35;100.00
69630;BME280;56857;52.212;5.496;2024-01-15T06:53:45;100228.34;;;1.36;100.00
69630;BME280;56857;52.212;5.496;2024-01-15T06:56:10;100235.34;;;1.36;100.00
69630;BME280;56857;52.212;5.496;2024-01-15T06:58:35;100237.97;;;1.36;100.00
69630;BME280;56857;52.212;5.496;2024-01-15T07:01:01;100232.59;;;1.37;100.00
69630;BME280;56857;52.212;5.496;2024-01-15T07:03:26;100231.78;;;1.37;100.00
69630;BME280;56857;52.212;5.496;2024-01-15T07:05:51;100233.56;;;1.36;100.00
69630;BME280;56857;52.212;5.496;2024-01-15T07:08:17;100230.13;;;1.36;100.00
69630;BME280;56857;52.212;5.496;2024-01-15T07:10:42;100236.19;;;1.36;100.00
69630;BME280;56857;52.212;5.496;2024-01-15T07:13:07;100239.59;;;1.37;100.00
69630;BME280;56857;52.212;5.496;2024-01-15T07:15:33;100242.34;;;1.35;100.00
69630;BME280;56857;52.212;5.496;2024-01-15T07:17:58;100246.97;;;1.32;100.00
69630;BME280;56857;52.212;5.496;2024-01-15T07:20:23;100252.91;;;1.34;100.00
69630;BME280;56857;52.212;5.496;2024-01-15T07:22:48;100250.41;;;1.32;100.00
69630;BME280;56857;52.212;5.496;2024-01-15T07:25:15;100246.88;;;1.33;100.00
69630;BME280;56857;52.212;5.496;2024-01-15T07:27:41;100235.72;;;1.31;100.00
69630;BME280;56857;52.212;5.496;2024-01-15T07:30:06;100227.06;;;1.31;100.00
69630;BME280;56857;52.212;5.496;2024-01-15T07:32:32;100231.44;;;1.30;100.00
69630;BME280;56857;52.212;5.496;2024-01-15T07:34:57;100236.53;;;1.32;100.00
69630;BME280;56857;52.212;5.496;2024-01-15T07:37:22;100241.66;;;1.33;100.00
69630;BME280;56857;52.212;5.496;2024-01-15T07:39:47;100250.31;;;1.34;100.00
69630;BME280;56857;52.212;5.496;2024-01-15T07:42:12;100253.75;;;1.34;100.00
69630;BME280;56857;52.212;5.496;2024-01-15T07:44:38;100263.38;;;1.34;100.00
69630;BME280;56857;52.212;5.496;2024-01-15T07:47:03;100265.97;;;1.34;100.00
69630;BME280;56857;52.212;5.496;2024-01-15T07:49:28;100262.66;;;1.32;100.00
69630;BME280;56857;52.212;5.496;2024-01-15T07:51:53;100260.03;;;1.32;100.00
69630;BME280;56857;52.212;5.496;2024-01-15T07:54:19;100250.41;;;1.32;100.00
69630;BME280;56857;52.212;5.496;2024-01-15T07:56:55;100228.84;;;1.30;100.00
69630;BME280;56857;52.212;5.496;2024-01-15T07:59:20;100230.50;;;1.31;100.00
69630;BME280;56857;52.212;5.496;2024-01-15T08:01:45;100226.09;;;1.32;100.00
69630;BME280;56857;52.212;5.496;2024-01-15T08:04:11;100224.31;;;1.32;100.00
69630;BME280;56857;52.212;5.496;2024-01-15T08:06:36;100228.69;;;1.32;100.00
69630;BME280;56857;52.212;5.496;2024-01-15T08:09:01;100232.13;;;1.32;100.00
69630;BME280;56857;52.212;5.496;2024-01-15T08:11:26;100232.03;;;1.34;100.00
69630;BME280;56857;52.212;5.496;2024-01-15T08:13:52;100221.59;;;1.34;100.00
69630;BME280;56857;52.212;5.496;2024-01-15T08:16:17;100223.22;;;1.35;100.00
69630;BME280;56857;52.212;5.496;2024-01-15T08:18:42;100225.72;;;1.36;100.00
69630;BME280;56857;52.212;5.496;2024-01-15T08:21:07;100223.13;;;1.36;100.00
69630;BME280;56857;52.212;5.496;2024-01-15T08:23:34;100227.38;;;1.37;100.00
69630;BME280;56857;52.212;5.496;2024-01-15T08:25:59;100236.75;;;1.40;100.00
69630;BME280;56857;52.212;5.496;2024-01-15T08:28:24;100245.41;;;1.41;100.00
69630;BME280;56857;52.212;5.496;2024-01-15T08:30:50;100247.19;;;1.40;100.00
69630;BME280;56857;52.212;5.496;2024-01-15T08:33:15;100246.63;;;1.36;100.00
69630;BME280;56857;52.212;5.496;2024-01-15T08:35:40;100250.16;;;1.35;100.00
69630;BME280;56857;52.212;5.496;2024-01-15T08:38:06;100233.81;;;1.33;100.00
69630;BME280;56857;52.212;5.496;2024-01-15T08:40:31;100224.31;;;1.32;100.00
69630;BME280;56857;52.212;5.496;2024-01-15T08:42:56;100222.53;;;1.33;100.00
69630;BME280;56857;52.212;5.496;2024-01-15T08:45:21;100221.84;;;1.31;100.00
69630;BME280;56857;52.212;5.496;2024-01-15T08:47:46;100226.22;;;1.30;100.00
69630;BME280;56857;52.212;5.496;2024-01-15T08:50:12;100225.41;;;1.30;100.00
69630;BME280;56857;52.212;5.496;2024-01-15T08:52:37;100233.25;;;1.30;100.00
69630;BME280;56857;52.212;5.496;2024-01-15T08:55:02;100232.28;;;1.31;100.00
69630;BME280;56857;52.212;5.496;2024-01-15T08:57:28;100231.06;;;1.35;100.00
69630;BME280;56857;52.212;5.496;2024-01-15T08:59:53;100233.31;;;1.39;100.00
69630;BME280;56857;52.212;5.496;2024-01-15T09:02:18;100233.19;;;1.41;100.00
69630;BME280;56857;52.212;5.496;2024-01-15T09:04:43;100241.47;;;1.46;100.00
69630;BME280;56857;52.212;5.496;2024-01-15T09:07:08;100252.34;;;1.51;100.00
69630;BME280;56857;52.212;5.496;2024-01-15T09:09:34;100249.38;;;1.56;100.00
69630;BME280;56857;52.212;5.496;2024-01-15T09:11:59;100254.34;;;1.59;100.00
69630;BME280;56857;52.212;5.496;2024-01-15T09:14:24;100257.94;;;1.58;100.00
69630;BME280;56857;52.212;5.496;2024-01-15T09:16:50;100258.88;;;1.57;100.00
69630;BME280;56857;52.212;5.496;2024-01-15T09:19:16;100254.34;;;1.59;100.00
69630;BME280;56857;52.212;5.496;2024-01-15T09:21:41;100247.81;;;1.65;100.00
69630;BME280;56857;52.212;5.496;2024-01-15T09:24:06;100242.19;;;1.69;100.00
69630;BME280;56857;52.212;5.496;2024-01-15T09:26:31;100253.47;;;1.70;100.00
69630;BME280;56857;52.212;5.496;2024-01-15T09:28:57;100239.47;;;1.71;100.00
69630;BME280;56857;52.212;5.496;2024-01-15T09:31:22;100242.19;;;1.69;100.00
69630;BME280;56857;52.212;5.496;2024-01-15T09:33:47;100243.00;;;1.70;100.00
69630;BME280;56857;52.212;5.496;2024-01-15T09:36:13;100238.75;;;1.69;100.00
69630;BME280;56857;52.212;5.496;2024-01-15T09:38:40;100239.81;;;1.66;100.00
69630;BME280;56857;52.212;5.496;2024-01-15T09:41:05;100231.16;;;1.66;100.00
69630;BME280;56857;52.212;5.496;2024-01-15T09:43:31;100230.09;;;1.68;100.00
69630;BME280;56857;52.212;5.496;2024-01-15T09:45:57;100232.88;;;1.76;100.00
69630;BME280;56857;52.212;5.496;2024-01-15T09:48:22;100247.84;;;1.95;100.00
69630;BME280;56857;52.212;5.496;2024-01-15T09:50:47;100252.19;;;2.06;100.00
69630;BME280;56857;52.212;5.496;2024-01-15T09:53:14;100259.06;;;2.07;100.00
69630;BME280;56857;52.212;5.496;2024-01-15T09:55:41;100255.63;;;2.06;100.00
69630;BME280;56857;52.212;5.496;2024-01-15T09:58:06;100250.66;;;2.03;100.00
69630;BME280;56857;52.212;5.496;2024-01-15T10:00:33;100252.56;;;2.01;100.00
69630;BME280;56857;52.212;5.496;2024-01-15T10:02:59;100253.28;;;2.03;100.00
69630;BME280;56857;52.212;5.496;2024-01-15T10:05:24;100256.03;;;2.02;100.00
69630;BME280;56857;52.212;5.496;2024-01-15T10:07:50;100260.56;;;2.00;100.00
69630;BME280;56857;52.212;5.496;2024-01-15T10:10:16;100261.13;;;2.03;100.00
69630;BME280;56857;52.212;5.496;2024-01-15T10:12:42;100258.81;;;2.10;100.00
69630;BME280;56857;52.212;5.496;2024-01-15T10:15:09;100255.25;;;2.11;100.00
69630;BME280;56857;52.212;5.496;2024-01-15T10:17:36;100259.53;;;2.12;100.00
69630;BME280;56857;52.212;5.496;2024-01-15T10:20:02;100255.25;;;2.11;100.00
69630;BME280;56857;52.212;5.496;2024-01-15T10:22:27;100256.09;;;2.12;100.00
69630;BME280;56857;52.212;5.496;2024-01-15T10:24:52;100265.59;;;2.13;100.00
69630;BME280;56857;52.212;5.496;2024-01-15T10:27:18;100268.31;;;2.11;100.00
69630;BME280;56857;52.212;5.496;2024-01-15T10:29:43;100264.03;;;2.10;100.00
69630;BME280;56857;52.212;5.496;2024-01-15T10:32:08;100258.25;;;2.06;100.00
69630;BME280;56857;52.212;5.496;2024-01-15T10:34:37;100262.78;;;2.04;100.00
69630;BME280;56857;52.212;5.496;2024-01-15T10:37:03;100261.94;;;2.04;100.00
69630;BME280;56857;52.212;5.496;2024-01-15T10:39:29;100260.28;;;2.03;100.00
69630;BME280;56857;52.212;5.496;2024-01-15T10:41:54;100256.16;;;2.00;100.00
69630;BME280;56857;52.212;5.496;2024-01-15T10:44:19;100255.19;;;2.01;100.00
69630;BME280;56857;52.212;5.496;2024-01-15T10:46:45;100261.25;;;2.02;100.00
69630;BME280;56857;52.212;5.496;2024-01-15T10:49:11;100273.13;;;2.06;100.00
69630;BME280;56857;52.212;5.496;2024-01-15T10:51:37;100273.13;;;2.06;100.00
69630;BME280;56857;52.212;5.496;2024-01-15T10:54:02;100271.47;;;2.05;100.00
69630;BME280;56857;52.212;5.496;2024-01-15T10:56:31;100279.31;;;2.05;100.00
69630;BME280;56857;52.212;5.496;2024-01-15T10:58:57;100280.69;;;2.09;100.00
69630;BME280;56857;52.212;5.496;2024-01-15T11:01:23;100281.13;;;2.14;100.00
69630;BME280;56857;52.212;5.496;2024-01-15T11:03:49;100277.06;;;2.21;100.00
69630;BME280;56857;52.212;5.496;2024-01-15T11:06:18;100282.34;;;2.31;100.00
69630;BME280;56857;52.212;5.496;2024-01-15T11:08:44;100279.78;;;2.41;100.00
69630;BME280;56857;52.212;5.496;2024-01-15T11:11:10;100289.00;;;2.45;100.00
69630;BME280;56857;52.212;5.496;2024-01-15T11:16:08;100285.31;;;2.47;100.00
69630;BME280;56857;52.212;5.496;2024-01-15T11:18:40;100287.91;;;2.47;100.00
69630;BME280;56857;52.212;5.496;2024-01-15T11:26:46;100286.13;;;2.48;100.00
69630;BME280;56857;52.212;5.496;2024-01-15T11:34:21;100281.50;;;2.61;100.00
69630;BME280;56857;52.212;5.496;2024-01-15T11:37:06;100284.13;;;2.61;100.00
69630;BME280;56857;52.212;5.496;2024-01-15T11:41:58;100288.25;;;2.64;100.00
69630;BME280;56857;52.212;5.496;2024-01-15T11:44:25;100288.97;;;2.66;100.00
69630;BME280;56857;52.212;5.496;2024-01-15T11:46:58;100289.53;;;2.69;100.00
69630;BME280;56857;52.212;5.496;2024-01-15T11:49:43;100290.66;;;2.76;100.00
69630;BME280;56857;52.212;5.496;2024-01-15T11:52:20;100295.75;;;2.78;100.00
69630;BME280;56857;52.212;5.496;2024-01-15T11:54:50;100293.97;;;2.78;100.00
69630;BME280;56857;52.212;5.496;2024-01-15T11:57:28;100290.94;;;2.83;100.00
69630;BME280;56857;52.212;5.496;2024-01-15T11:59:57;100294.81;;;2.89;100.00
69630;BME280;56857;52.212;5.496;2024-01-15T12:02:23;100311.25;;;2.91;100.00
69630;BME280;56857;52.212;5.496;2024-01-15T12:04:48;100323.06;;;2.85;100.00
69630;BME280;56857;52.212;5.496;2024-01-15T12:07:13;100336.22;;;2.74;100.00
69630;BME280;56857;52.212;5.496;2024-01-15T12:09:45;100338.38;;;2.59;100.00
69630;BME280;56857;52.212;5.496;2024-01-15T12:12:18;100324.66;;;2.46;100.00
69630;BME280;56857;52.212;5.496;2024-01-15T12:14:47;100319.84;;;2.41;100.00
69630;BME280;56857;52.212;5.496;2024-01-15T12:17:12;100326.28;;;2.37;100.00
69630;BME280;56857;52.212;5.496;2024-01-15T12:19:37;100331.78;;;2.34;100.00
69630;BME280;56857;52.212;5.496;2024-01-15T12:22:03;100328.44;;;2.32;100.00
69630;BME280;56857;52.212;5.496;2024-01-15T12:24:28;100330.81;;;2.35;100.00
69630;BME280;56857;52.212;5.496;2024-01-15T12:26:54;100323.94;;;2.34;100.00
69630;BME280;56857;52.212;5.496;2024-01-15T12:29:19;100325.00;;;2.31;100.00
69630;BME280;56857;52.212;5.496;2024-01-15T12:31:47;100326.91;;;2.29;100.00
69630;BME280;56857;52.212;5.496;2024-01-15T12:34:13;100330.09;;;2.33;100.00
69630;BME280;56857;52.212;5.496;2024-01-15T12:36:40;100340.19;;;2.38;100.00
69630;BME280;56857;52.212;5.496;2024-01-15T12:39:05;100349.31;;;2.43;100.00
69630;BME280;56857;52.212;5.496;2024-01-15T12:41:30;100333.47;;;2.45;100.00
69630;BME280;56857;52.212;5.496;2024-01-15T12:43:56;100330.03;;;2.44;100.00
69630;BME280;56857;52.212;5.496;2024-01-15T12:46:21;100321.63;;;2.41;100.00
69630;BME280;56857;52.212;5.496;2024-01-15T12:48:46;100327.94;;;2.38;100.00
69630;BME280;56857;52.212;5.496;2024-01-15T12:51:12;100325.47;;;2.37;100.00
69630;BME280;56857;52.212;5.496;2024-01-15T12:53:37;100325.56;;;2.35;100.00
69630;BME280;56857;52.212;5.496;2024-01-15T12:56:02;100328.34;;;2.34;100.00
69630;BME280;56857;52.212;5.496;2024-01-15T12:58:28;100335.47;;;2.31;100.00